SWA3297 KBWI-KPBI
Flight info
| Callsign | SWA3297 |
|---|---|
| Flight time | 2h 10m |
| Altitude | 38000 |
| Route | CONLE5 SCOOB PAACK Q97 KENLL CPTAN3 |
| Aircraft | B737/M-SADE2E3GIJ4RWZ/LB1D1 |
Departure
| Time | 2026-05-07 19:02 |
|---|---|
| Airport | Baltimore/Washington International Thurgood Marshall Airport (KBWI) |
Arrival
| Time | 2026-05-07 21:12 |
|---|---|
| Airport | Palm Beach International Airport (KPBI) |
| Time | Latitude | Longitude | Altitude | Speed | Heading |
|---|---|---|---|---|---|
| 2026-05-07 18:48 | 39.18036 | -76.67347 | 154 ft | 0 kts | 59° |
| 2026-05-07 18:49 | 39.18026 | -76.67368 | 154 ft | 4 kts | 58° |
| 2026-05-07 18:50 | 39.18014 | -76.67398 | 153 ft | 4 kts | 75° |
| 2026-05-07 18:50 | 39.18012 | -76.67429 | 152 ft | 4 kts | 122° |
| 2026-05-07 18:50 | 39.18018 | -76.67439 | 152 ft | 1 kts | 144° |
| 2026-05-07 18:55 | 39.18017 | -76.67438 | 152 ft | 2 kts | 144° |
| 2026-05-07 18:55 | 39.17976 | -76.67400 | 152 ft | 10 kts | 144° |
| 2026-05-07 18:55 | 39.17920 | -76.67348 | 153 ft | 10 kts | 144° |
| 2026-05-07 18:55 | 39.17865 | -76.67296 | 153 ft | 10 kts | 144° |
| 2026-05-07 18:56 | 39.17811 | -76.67246 | 154 ft | 9 kts | 144° |
| 2026-05-07 18:56 | 39.17757 | -76.67196 | 154 ft | 10 kts | 144° |
| 2026-05-07 18:56 | 39.17700 | -76.67143 | 154 ft | 11 kts | 144° |
| 2026-05-07 18:56 | 39.17640 | -76.67086 | 155 ft | 11 kts | 144° |
| 2026-05-07 18:57 | 39.17577 | -76.67026 | 155 ft | 12 kts | 139° |
| 2026-05-07 18:57 | 39.17535 | -76.66925 | 155 ft | 14 kts | 98° |
| 2026-05-07 18:57 | 39.17530 | -76.66803 | 154 ft | 14 kts | 94° |
| 2026-05-07 18:57 | 39.17523 | -76.66673 | 153 ft | 16 kts | 94° |
| 2026-05-07 18:58 | 39.17551 | -76.66540 | 153 ft | 16 kts | 41° |
| 2026-05-07 18:58 | 39.17553 | -76.66428 | 152 ft | 14 kts | 123° |
| 2026-05-07 18:58 | 39.17493 | -76.66311 | 148 ft | 18 kts | 123° |
| 2026-05-07 18:58 | 39.17453 | -76.66157 | 148 ft | 18 kts | 95° |
| 2026-05-07 18:59 | 39.17444 | -76.65996 | 146 ft | 18 kts | 95° |
| 2026-05-07 18:59 | 39.17434 | -76.65829 | 143 ft | 20 kts | 94° |
| 2026-05-07 18:59 | 39.17424 | -76.65639 | 141 ft | 19 kts | 94° |
| 2026-05-07 18:59 | 39.17382 | -76.65523 | 140 ft | 11 kts | 167° |
| 2026-05-07 19:00 | 39.17364 | -76.65522 | 140 ft | 0 kts | 180° |
| 2026-05-07 19:00 | 39.17356 | -76.65522 | 140 ft | 3 kts | 180° |
| 2026-05-07 19:00 | 39.17322 | -76.65525 | 139 ft | 7 kts | 187° |
| 2026-05-07 19:00 | 39.17283 | -76.65562 | 139 ft | 8 kts | 252° |
| 2026-05-07 19:01 | 39.17284 | -76.65628 | 139 ft | 7 kts | 273° |
| 2026-05-07 19:01 | 39.17290 | -76.65733 | 140 ft | 31 kts | 274° |
| 2026-05-07 19:01 | 39.17326 | -76.66338 | 149 ft | 103 kts | 274° |
| 2026-05-07 19:01 | 39.17394 | -76.67524 | 152 ft | 160 kts | 274° |
| 2026-05-07 19:02 | 39.17487 | -76.69058 | 609 ft | 172 kts | 275° |
| 2026-05-07 19:02 | 39.17581 | -76.70550 | 1548 ft | 165 kts | 275° |
| 2026-05-07 19:02 | 39.17670 | -76.72036 | 2235 ft | 174 kts | 275° |
| 2026-05-07 19:02 | 39.17551 | -76.73709 | 2501 ft | 205 kts | 245° |
| 2026-05-07 19:03 | 39.16500 | -76.75077 | 2748 ft | 235 kts | 204° |
| 2026-05-07 19:03 | 39.14809 | -76.75278 | 3147 ft | 260 kts | 164° |
| 2026-05-07 19:03 | 39.13231 | -76.74121 | 3911 ft | 267 kts | 141° |
| 2026-05-07 19:03 | 39.11756 | -76.72613 | 4788 ft | 273 kts | 141° |
| 2026-05-07 19:04 | 39.10749 | -76.71606 | 5294 ft | 279 kts | 143° |
| 2026-05-07 19:04 | 39.09158 | -76.70098 | 6112 ft | 292 kts | 146° |
| 2026-05-07 19:04 | 39.07435 | -76.68646 | 7090 ft | 297 kts | 152° |
| 2026-05-07 19:04 | 39.05677 | -76.67273 | 8316 ft | 294 kts | 155° |
| 2026-05-07 19:05 | 39.03327 | -76.65463 | 9748 ft | 299 kts | 158° |
| 2026-05-07 19:05 | 39.02115 | -76.64527 | 10400 ft | 303 kts | 158° |
| 2026-05-07 19:05 | 39.00237 | -76.63079 | 10854 ft | 329 kts | 158° |
| 2026-05-07 19:05 | 38.97491 | -76.60953 | 11152 ft | 368 kts | 156° |
| 2026-05-07 19:06 | 38.95978 | -76.59768 | 11291 ft | 386 kts | 156° |
| 2026-05-07 19:06 | 38.91296 | -76.56056 | 12600 ft | 404 kts | 156° |
| 2026-05-07 19:06 | 38.88891 | -76.54163 | 13456 ft | 406 kts | 156° |
| 2026-05-07 19:07 | 38.86408 | -76.52488 | 13856 ft | 396 kts | 170° |
| 2026-05-07 19:07 | 38.83765 | -76.51957 | 14006 ft | 379 kts | 188° |
| 2026-05-07 19:07 | 38.81204 | -76.52402 | 14021 ft | 365 kts | 203° |
| 2026-05-07 19:07 | 38.78836 | -76.53494 | 14008 ft | 362 kts | 208° |
| 2026-05-07 19:08 | 38.76500 | -76.54704 | 14014 ft | 363 kts | 208° |
| 2026-05-07 19:08 | 38.74155 | -76.55915 | 14036 ft | 364 kts | 208° |
| 2026-05-07 19:08 | 38.71788 | -76.57103 | 14007 ft | 366 kts | 207° |
| 2026-05-07 19:08 | 38.69419 | -76.58264 | 14002 ft | 364 kts | 207° |
| 2026-05-07 19:09 | 38.67059 | -76.59385 | 14295 ft | 368 kts | 206° |
| 2026-05-07 19:09 | 38.64651 | -76.60496 | 15169 ft | 367 kts | 206° |
| 2026-05-07 19:09 | 38.62259 | -76.61589 | 16120 ft | 364 kts | 207° |
| 2026-05-07 19:09 | 38.59869 | -76.62687 | 16869 ft | 367 kts | 207° |
| 2026-05-07 19:10 | 38.57452 | -76.63802 | 17545 ft | 370 kts | 207° |
| 2026-05-07 19:10 | 38.55027 | -76.64921 | 18267 ft | 372 kts | 208° |
| 2026-05-07 19:10 | 38.52590 | -76.66045 | 18885 ft | 373 kts | 208° |
| 2026-05-07 19:10 | 38.50150 | -76.67170 | 19527 ft | 373 kts | 208° |
| 2026-05-07 19:11 | 38.47700 | -76.68298 | 20182 ft | 374 kts | 208° |
| 2026-05-07 19:11 | 38.45254 | -76.69424 | 20807 ft | 374 kts | 208° |
| 2026-05-07 19:11 | 38.42714 | -76.70323 | 21379 ft | 386 kts | 200° |
| 2026-05-07 19:11 | 38.40029 | -76.70771 | 21953 ft | 394 kts | 195° |
| 2026-05-07 19:12 | 38.37250 | -76.70845 | 22485 ft | 407 kts | 188° |
| 2026-05-07 19:12 | 38.34397 | -76.70452 | 22920 ft | 415 kts | 184° |
| 2026-05-07 19:12 | 38.31561 | -76.69973 | 23333 ft | 419 kts | 184° |
| 2026-05-07 19:12 | 38.28664 | -76.69470 | 23741 ft | 421 kts | 184° |
| 2026-05-07 19:13 | 38.25762 | -76.68974 | 24088 ft | 423 kts | 185° |
| 2026-05-07 19:13 | 38.22833 | -76.68487 | 24422 ft | 425 kts | 185° |
| 2026-05-07 19:13 | 38.19895 | -76.68009 | 24726 ft | 427 kts | 185° |
| 2026-05-07 19:13 | 38.16944 | -76.67533 | 25041 ft | 429 kts | 185° |
| 2026-05-07 19:14 | 38.13974 | -76.67057 | 25357 ft | 431 kts | 185° |
| 2026-05-07 19:14 | 38.10983 | -76.66579 | 25554 ft | 435 kts | 185° |
| 2026-05-07 19:14 | 38.07981 | -76.66213 | 25775 ft | 433 kts | 188° |
| 2026-05-07 19:14 | 38.04970 | -76.65990 | 26064 ft | 433 kts | 189° |
| 2026-05-07 19:15 | 38.01962 | -76.65808 | 26360 ft | 434 kts | 189° |
| 2026-05-07 19:15 | 37.98937 | -76.65633 | 26638 ft | 436 kts | 190° |
| 2026-05-07 19:15 | 37.95899 | -76.65450 | 26906 ft | 438 kts | 190° |
| 2026-05-07 19:15 | 37.92855 | -76.65259 | 27140 ft | 439 kts | 190° |
| 2026-05-07 19:16 | 37.89792 | -76.65058 | 27389 ft | 440 kts | 190° |
| 2026-05-07 19:16 | 37.86775 | -76.64855 | 27588 ft | 441 kts | 190° |
| 2026-05-07 19:16 | 37.83710 | -76.64648 | 27870 ft | 441 kts | 190° |
| 2026-05-07 19:16 | 37.80646 | -76.64438 | 28215 ft | 440 kts | 190° |
| 2026-05-07 19:17 | 37.77599 | -76.64230 | 28587 ft | 438 kts | 191° |
| 2026-05-07 19:17 | 37.74552 | -76.64025 | 28932 ft | 438 kts | 191° |
| 2026-05-07 19:17 | 37.71514 | -76.63822 | 29289 ft | 437 kts | 191° |
| 2026-05-07 19:17 | 37.68475 | -76.63619 | 29674 ft | 436 kts | 191° |
| 2026-05-07 19:18 | 37.65446 | -76.63416 | 30055 ft | 435 kts | 191° |
| 2026-05-07 19:18 | 37.62424 | -76.63224 | 30387 ft | 432 kts | 193° |
| 2026-05-07 19:18 | 37.59522 | -76.63370 | 30714 ft | 417 kts | 200° |
| 2026-05-07 19:18 | 37.56696 | -76.63938 | 31056 ft | 404 kts | 206° |
| 2026-05-07 19:19 | 37.54042 | -76.64917 | 31418 ft | 396 kts | 210° |
| 2026-05-07 19:19 | 37.51418 | -76.65953 | 31783 ft | 395 kts | 210° |
| 2026-05-07 19:19 | 37.48794 | -76.66984 | 32151 ft | 394 kts | 210° |
| 2026-05-07 19:19 | 37.46176 | -76.68005 | 32533 ft | 394 kts | 210° |
| 2026-05-07 19:20 | 37.43558 | -76.69021 | 32897 ft | 393 kts | 210° |
| 2026-05-07 19:20 | 37.40941 | -76.70033 | 33082 ft | 395 kts | 210° |
| 2026-05-07 19:20 | 37.38347 | -76.71037 | 33334 ft | 396 kts | 210° |
| 2026-05-07 19:20 | 37.35716 | -76.72049 | 33709 ft | 394 kts | 210° |
| 2026-05-07 19:21 | 37.33104 | -76.73049 | 34088 ft | 392 kts | 210° |
| 2026-05-07 19:21 | 37.30497 | -76.74048 | 34386 ft | 391 kts | 210° |
| 2026-05-07 19:21 | 37.27895 | -76.75045 | 34640 ft | 391 kts | 210° |
| 2026-05-07 19:21 | 37.25301 | -76.76040 | 34887 ft | 390 kts | 210° |
| 2026-05-07 19:22 | 37.22706 | -76.77034 | 35179 ft | 389 kts | 210° |
| 2026-05-07 19:22 | 37.20115 | -76.78025 | 35377 ft | 389 kts | 210° |
| 2026-05-07 19:22 | 37.14899 | -76.80027 | 35679 ft | 393 kts | 210° |
| 2026-05-07 19:23 | 37.12290 | -76.81021 | 36006 ft | 390 kts | 210° |
| 2026-05-07 19:23 | 37.09699 | -76.82005 | 36317 ft | 388 kts | 210° |
| 2026-05-07 19:23 | 37.07119 | -76.82987 | 36572 ft | 388 kts | 210° |
| 2026-05-07 19:23 | 37.04541 | -76.83969 | 36835 ft | 387 kts | 210° |
| 2026-05-07 19:24 | 37.02001 | -76.84936 | 37073 ft | 386 kts | 210° |
| 2026-05-07 19:24 | 36.99431 | -76.85916 | 37270 ft | 387 kts | 210° |
| 2026-05-07 19:24 | 36.94276 | -76.87879 | 37653 ft | 386 kts | 211° |
| 2026-05-07 19:25 | 36.91703 | -76.88853 | 37913 ft | 385 kts | 211° |
| 2026-05-07 19:25 | 36.89129 | -76.89832 | 37898 ft | 389 kts | 211° |
| 2026-05-07 19:25 | 36.83953 | -76.91795 | 37917 ft | 387 kts | 211° |
| 2026-05-07 19:26 | 36.78814 | -76.93735 | 37917 ft | 385 kts | 211° |
| 2026-05-07 19:26 | 36.73731 | -76.95656 | 37882 ft | 384 kts | 211° |
| 2026-05-07 19:27 | 36.68620 | -76.97588 | 37909 ft | 385 kts | 211° |
| 2026-05-07 19:27 | 36.63485 | -76.99527 | 37922 ft | 386 kts | 211° |
| 2026-05-07 19:28 | 36.58336 | -77.01466 | 37916 ft | 388 kts | 211° |
| 2026-05-07 19:28 | 36.53158 | -77.03412 | 37907 ft | 389 kts | 211° |
| 2026-05-07 19:29 | 36.47980 | -77.05354 | 37895 ft | 389 kts | 211° |
| 2026-05-07 19:29 | 36.42793 | -77.07298 | 37902 ft | 390 kts | 211° |
| 2026-05-07 19:30 | 36.37636 | -77.09228 | 37907 ft | 390 kts | 211° |
| 2026-05-07 19:30 | 36.32429 | -77.11174 | 37911 ft | 391 kts | 211° |
| 2026-05-07 19:31 | 36.27225 | -77.13116 | 37880 ft | 391 kts | 211° |
| 2026-05-07 19:31 | 36.22012 | -77.15059 | 37904 ft | 391 kts | 211° |
| 2026-05-07 19:32 | 36.16797 | -77.17001 | 37905 ft | 392 kts | 211° |
| 2026-05-07 19:32 | 36.11573 | -77.18943 | 37896 ft | 392 kts | 211° |
| 2026-05-07 19:33 | 36.06373 | -77.20873 | 37869 ft | 393 kts | 211° |
| 2026-05-07 19:33 | 36.01133 | -77.22817 | 37859 ft | 394 kts | 211° |
| 2026-05-07 19:34 | 35.95870 | -77.24779 | 37870 ft | 393 kts | 213° |
| 2026-05-07 19:34 | 35.93391 | -77.26060 | 37868 ft | 381 kts | 219° |
| 2026-05-07 19:34 | 35.91096 | -77.27624 | 37861 ft | 373 kts | 224° |
| 2026-05-07 19:35 | 35.87019 | -77.31409 | 37861 ft | 366 kts | 229° |
| 2026-05-07 19:35 | 35.83021 | -77.35297 | 37801 ft | 366 kts | 229° |
| 2026-05-07 19:36 | 35.79038 | -77.39150 | 37832 ft | 367 kts | 228° |
| 2026-05-07 19:36 | 35.75008 | -77.43029 | 37841 ft | 369 kts | 228° |
| 2026-05-07 19:37 | 35.70958 | -77.46917 | 37836 ft | 370 kts | 228° |
| 2026-05-07 19:37 | 35.66895 | -77.50811 | 37835 ft | 370 kts | 228° |
| 2026-05-07 19:38 | 35.62829 | -77.54703 | 37836 ft | 371 kts | 228° |
| 2026-05-07 19:38 | 35.58758 | -77.58596 | 37806 ft | 371 kts | 228° |
| 2026-05-07 19:39 | 35.54684 | -77.62485 | 37859 ft | 371 kts | 228° |
| 2026-05-07 19:39 | 35.50639 | -77.66343 | 37855 ft | 371 kts | 228° |
| 2026-05-07 19:40 | 35.46568 | -77.70223 | 37857 ft | 371 kts | 228° |
| 2026-05-07 19:40 | 35.42489 | -77.74106 | 37858 ft | 370 kts | 228° |
| 2026-05-07 19:41 | 35.38419 | -77.77975 | 37857 ft | 370 kts | 228° |
| 2026-05-07 19:41 | 35.34353 | -77.81837 | 37839 ft | 370 kts | 228° |
| 2026-05-07 19:42 | 35.30284 | -77.85696 | 37834 ft | 370 kts | 228° |
| 2026-05-07 19:42 | 35.26249 | -77.89519 | 37831 ft | 370 kts | 228° |
| 2026-05-07 19:43 | 35.22186 | -77.93362 | 37839 ft | 369 kts | 228° |
| 2026-05-07 19:43 | 35.18121 | -77.97203 | 37853 ft | 369 kts | 228° |
| 2026-05-07 19:44 | 35.14055 | -78.01039 | 37803 ft | 369 kts | 228° |
| 2026-05-07 19:44 | 35.09992 | -78.04869 | 37843 ft | 370 kts | 228° |
| 2026-05-07 19:45 | 35.05911 | -78.08712 | 37846 ft | 371 kts | 228° |
| 2026-05-07 19:45 | 35.01815 | -78.12561 | 37846 ft | 372 kts | 228° |
| 2026-05-07 19:46 | 34.97707 | -78.16417 | 37846 ft | 373 kts | 228° |
| 2026-05-07 19:46 | 34.93625 | -78.20243 | 37858 ft | 373 kts | 228° |
| 2026-05-07 19:47 | 34.89508 | -78.24096 | 37853 ft | 373 kts | 227° |
| 2026-05-07 19:47 | 34.85383 | -78.27955 | 37856 ft | 375 kts | 227° |
| 2026-05-07 19:48 | 34.81232 | -78.31832 | 37858 ft | 376 kts | 227° |
| 2026-05-07 19:48 | 34.77075 | -78.35709 | 37856 ft | 377 kts | 227° |
| 2026-05-07 19:49 | 34.72931 | -78.39568 | 37857 ft | 378 kts | 227° |
| 2026-05-07 19:49 | 34.68760 | -78.43447 | 37818 ft | 378 kts | 227° |
| 2026-05-07 19:50 | 34.64586 | -78.47325 | 37848 ft | 378 kts | 227° |
| 2026-05-07 19:50 | 34.60413 | -78.51196 | 37849 ft | 378 kts | 227° |
| 2026-05-07 19:51 | 34.56235 | -78.55068 | 37849 ft | 378 kts | 227° |
| 2026-05-07 19:51 | 34.52055 | -78.58936 | 37852 ft | 378 kts | 227° |
| 2026-05-07 19:52 | 34.47901 | -78.62776 | 37855 ft | 378 kts | 227° |
| 2026-05-07 19:52 | 34.43725 | -78.66632 | 37861 ft | 377 kts | 226° |
| 2026-05-07 19:53 | 34.39537 | -78.70479 | 37870 ft | 379 kts | 225° |
| 2026-05-07 19:53 | 34.35184 | -78.74132 | 37863 ft | 381 kts | 224° |
| 2026-05-07 19:54 | 34.30796 | -78.77737 | 37876 ft | 381 kts | 224° |
| 2026-05-07 19:54 | 34.26433 | -78.81359 | 37874 ft | 380 kts | 224° |
| 2026-05-07 19:55 | 34.22076 | -78.84989 | 37816 ft | 380 kts | 224° |
| 2026-05-07 19:55 | 34.17734 | -78.88603 | 37874 ft | 383 kts | 224° |
| 2026-05-07 19:56 | 34.13323 | -78.92275 | 37874 ft | 386 kts | 224° |
| 2026-05-07 19:56 | 34.08888 | -78.95965 | 37882 ft | 388 kts | 224° |
| 2026-05-07 19:57 | 34.04425 | -78.99670 | 37866 ft | 390 kts | 224° |
| 2026-05-07 19:57 | 33.99957 | -79.03376 | 37875 ft | 390 kts | 224° |
| 2026-05-07 19:58 | 33.95477 | -79.07088 | 37868 ft | 391 kts | 224° |
| 2026-05-07 19:58 | 33.91027 | -79.10770 | 37855 ft | 391 kts | 224° |
| 2026-05-07 19:59 | 33.86539 | -79.14478 | 37861 ft | 391 kts | 224° |
| 2026-05-07 19:59 | 33.82054 | -79.18180 | 37858 ft | 391 kts | 224° |
| 2026-05-07 20:00 | 33.77577 | -79.21871 | 37861 ft | 390 kts | 224° |
| 2026-05-07 20:00 | 33.73103 | -79.25556 | 37849 ft | 390 kts | 224° |
| 2026-05-07 20:01 | 33.68637 | -79.29230 | 37882 ft | 394 kts | 224° |
| 2026-05-07 20:01 | 33.64132 | -79.32994 | 37902 ft | 396 kts | 224° |
| 2026-05-07 20:02 | 33.59630 | -79.36831 | 37900 ft | 397 kts | 224° |
| 2026-05-07 20:02 | 33.55117 | -79.40673 | 37897 ft | 399 kts | 224° |
| 2026-05-07 20:03 | 33.50587 | -79.44514 | 37905 ft | 398 kts | 224° |
| 2026-05-07 20:03 | 33.46060 | -79.48344 | 37890 ft | 398 kts | 224° |
| 2026-05-07 20:04 | 33.41525 | -79.52176 | 37901 ft | 399 kts | 224° |
| 2026-05-07 20:04 | 33.36981 | -79.56010 | 37898 ft | 400 kts | 224° |
| 2026-05-07 20:05 | 33.32462 | -79.59818 | 37896 ft | 400 kts | 224° |
| 2026-05-07 20:05 | 33.27915 | -79.63645 | 37888 ft | 400 kts | 224° |
| 2026-05-07 20:06 | 33.23359 | -79.67474 | 37879 ft | 400 kts | 224° |
| 2026-05-07 20:06 | 33.18799 | -79.71302 | 37890 ft | 401 kts | 224° |
| 2026-05-07 20:07 | 33.14223 | -79.75138 | 37894 ft | 402 kts | 224° |
| 2026-05-07 20:07 | 33.09635 | -79.78979 | 37895 ft | 403 kts | 224° |
| 2026-05-07 20:08 | 33.05081 | -79.82787 | 37896 ft | 402 kts | 224° |
| 2026-05-07 20:08 | 33.00504 | -79.86607 | 37900 ft | 401 kts | 224° |
| 2026-05-07 20:09 | 32.95931 | -79.90420 | 37904 ft | 400 kts | 224° |
| 2026-05-07 20:10 | 32.89094 | -79.96114 | 37917 ft | 400 kts | 224° |
| 2026-05-07 20:10 | 32.84537 | -79.99902 | 37918 ft | 399 kts | 224° |
| 2026-05-07 20:11 | 32.80017 | -80.03656 | 37917 ft | 399 kts | 224° |
| 2026-05-07 20:11 | 32.75461 | -80.07434 | 37884 ft | 400 kts | 224° |
| 2026-05-07 20:12 | 32.70894 | -80.11219 | 37918 ft | 402 kts | 224° |
| 2026-05-07 20:12 | 32.66290 | -80.15028 | 37922 ft | 404 kts | 223° |
| 2026-05-07 20:13 | 32.61699 | -80.18820 | 37924 ft | 405 kts | 224° |
| 2026-05-07 20:13 | 32.57075 | -80.22634 | 37913 ft | 405 kts | 224° |
| 2026-05-07 20:14 | 32.52448 | -80.26442 | 37912 ft | 405 kts | 223° |
| 2026-05-07 20:14 | 32.47490 | -80.29777 | 37906 ft | 413 kts | 217° |
| 2026-05-07 20:15 | 32.42399 | -80.32960 | 37918 ft | 415 kts | 217° |
| 2026-05-07 20:15 | 32.37292 | -80.36159 | 37916 ft | 415 kts | 217° |
| 2026-05-07 20:16 | 32.32190 | -80.39371 | 37923 ft | 416 kts | 217° |
| 2026-05-07 20:16 | 32.27108 | -80.42576 | 37915 ft | 416 kts | 217° |
| 2026-05-07 20:17 | 32.21997 | -80.45798 | 37914 ft | 418 kts | 216° |
| 2026-05-07 20:17 | 32.16857 | -80.49034 | 37919 ft | 419 kts | 216° |
| 2026-05-07 20:18 | 32.11695 | -80.52279 | 37915 ft | 421 kts | 216° |
| 2026-05-07 20:18 | 32.06523 | -80.55525 | 37917 ft | 421 kts | 216° |
| 2026-05-07 20:19 | 32.01390 | -80.58742 | 37907 ft | 421 kts | 216° |
| 2026-05-07 20:19 | 31.96218 | -80.61980 | 37898 ft | 421 kts | 216° |
| 2026-05-07 20:20 | 31.91034 | -80.65223 | 37915 ft | 423 kts | 216° |
| 2026-05-07 20:20 | 31.85830 | -80.68473 | 37912 ft | 424 kts | 216° |
| 2026-05-07 20:21 | 31.80609 | -80.71730 | 37924 ft | 425 kts | 216° |
| 2026-05-07 20:21 | 31.75388 | -80.74982 | 37921 ft | 425 kts | 216° |
| 2026-05-07 20:22 | 31.70158 | -80.78235 | 37926 ft | 425 kts | 216° |
| 2026-05-07 20:22 | 31.64965 | -80.81462 | 37925 ft | 426 kts | 216° |
| 2026-05-07 20:23 | 31.59724 | -80.84714 | 37912 ft | 426 kts | 216° |
| 2026-05-07 20:23 | 31.54482 | -80.87963 | 37930 ft | 426 kts | 216° |
| 2026-05-07 20:24 | 31.49237 | -80.91210 | 37934 ft | 426 kts | 216° |
| 2026-05-07 20:24 | 31.43991 | -80.94452 | 37923 ft | 426 kts | 215° |
| 2026-05-07 20:25 | 31.38744 | -80.97693 | 37935 ft | 427 kts | 215° |
| 2026-05-07 20:25 | 31.33490 | -81.00934 | 37934 ft | 427 kts | 215° |
| 2026-05-07 20:26 | 31.28206 | -81.04140 | 37933 ft | 431 kts | 211° |
| 2026-05-07 20:26 | 31.23364 | -81.05878 | 37936 ft | 445 kts | 199° |
| 2026-05-07 20:27 | 31.16059 | -81.06420 | 37936 ft | 457 kts | 188° |
| 2026-05-07 20:27 | 31.09683 | -81.06473 | 37941 ft | 459 kts | 188° |
| 2026-05-07 20:28 | 31.03293 | -81.06559 | 37943 ft | 459 kts | 188° |
| 2026-05-07 20:28 | 30.97986 | -81.06662 | 37953 ft | 459 kts | 189° |
| 2026-05-07 20:29 | 30.91598 | -81.06797 | 37936 ft | 459 kts | 189° |
| 2026-05-07 20:29 | 30.85201 | -81.06932 | 37961 ft | 460 kts | 189° |
| 2026-05-07 20:30 | 30.78803 | -81.07066 | 37966 ft | 460 kts | 189° |
| 2026-05-07 20:30 | 30.72494 | -81.07197 | 37968 ft | 460 kts | 189° |
| 2026-05-07 20:31 | 30.66033 | -81.07331 | 37968 ft | 460 kts | 189° |
| 2026-05-07 20:31 | 30.59619 | -81.07511 | 37967 ft | 459 kts | 191° |
| 2026-05-07 20:32 | 30.53246 | -81.07904 | 37968 ft | 460 kts | 191° |
| 2026-05-07 20:32 | 30.46850 | -81.08331 | 37969 ft | 461 kts | 191° |
| 2026-05-07 20:33 | 30.40434 | -81.08731 | 37968 ft | 462 kts | 191° |
| 2026-05-07 20:33 | 30.34012 | -81.09115 | 37967 ft | 462 kts | 191° |
| 2026-05-07 20:34 | 30.27582 | -81.09495 | 37965 ft | 462 kts | 191° |
| 2026-05-07 20:34 | 30.21157 | -81.09875 | 37966 ft | 462 kts | 191° |
| 2026-05-07 20:35 | 30.14782 | -81.10252 | 37980 ft | 462 kts | 191° |
| 2026-05-07 20:35 | 30.08363 | -81.10633 | 37957 ft | 462 kts | 191° |
| 2026-05-07 20:36 | 30.01939 | -81.11013 | 37989 ft | 463 kts | 191° |
| 2026-05-07 20:36 | 29.95491 | -81.11394 | 37998 ft | 464 kts | 191° |
| 2026-05-07 20:37 | 29.89041 | -81.11774 | 37998 ft | 465 kts | 191° |
| 2026-05-07 20:37 | 29.82582 | -81.12154 | 37996 ft | 465 kts | 191° |
| 2026-05-07 20:38 | 29.76125 | -81.12336 | 37992 ft | 469 kts | 188° |
| 2026-05-07 20:38 | 29.69586 | -81.12315 | 37995 ft | 470 kts | 188° |
| 2026-05-07 20:39 | 29.63055 | -81.12349 | 37997 ft | 470 kts | 188° |
| 2026-05-07 20:39 | 29.56478 | -81.11881 | 37992 ft | 483 kts | 176° |
| 2026-05-07 20:40 | 29.49994 | -81.09493 | 37969 ft | 493 kts | 166° |
| 2026-05-07 20:40 | 29.43573 | -81.06705 | 37980 ft | 493 kts | 166° |
| 2026-05-07 20:41 | 29.37144 | -81.03967 | 37982 ft | 493 kts | 167° |
| 2026-05-07 20:41 | 29.30735 | -81.01307 | 37982 ft | 493 kts | 167° |
| 2026-05-07 20:42 | 29.24282 | -80.98650 | 37979 ft | 493 kts | 167° |
| 2026-05-07 20:42 | 29.21048 | -80.97319 | 37703 ft | 495 kts | 167° |
| 2026-05-07 20:42 | 29.17825 | -80.95992 | 37445 ft | 492 kts | 167° |
| 2026-05-07 20:42 | 29.14610 | -80.94667 | 37185 ft | 490 kts | 167° |
| 2026-05-07 20:43 | 29.11403 | -80.93346 | 36947 ft | 491 kts | 167° |
| 2026-05-07 20:43 | 29.08186 | -80.92024 | 36699 ft | 491 kts | 167° |
| 2026-05-07 20:43 | 29.04969 | -80.90701 | 36453 ft | 492 kts | 167° |
| 2026-05-07 20:43 | 29.01750 | -80.89379 | 36209 ft | 492 kts | 167° |
| 2026-05-07 20:44 | 28.98534 | -80.88058 | 36032 ft | 492 kts | 167° |
| 2026-05-07 20:44 | 28.92103 | -80.85421 | 35965 ft | 490 kts | 166° |
| 2026-05-07 20:45 | 28.85718 | -80.82813 | 35982 ft | 491 kts | 166° |
| 2026-05-07 20:45 | 28.79280 | -80.80186 | 35976 ft | 492 kts | 166° |
| 2026-05-07 20:46 | 28.72824 | -80.77552 | 35967 ft | 493 kts | 166° |
| 2026-05-07 20:46 | 28.66355 | -80.74916 | 35963 ft | 493 kts | 166° |
| 2026-05-07 20:47 | 28.59905 | -80.72293 | 35956 ft | 492 kts | 166° |
| 2026-05-07 20:47 | 28.53450 | -80.69672 | 35960 ft | 492 kts | 166° |
| 2026-05-07 20:48 | 28.47003 | -80.67057 | 36010 ft | 492 kts | 166° |
| 2026-05-07 20:48 | 28.40608 | -80.64466 | 36006 ft | 491 kts | 166° |
| 2026-05-07 20:49 | 28.34172 | -80.61861 | 35974 ft | 491 kts | 166° |
| 2026-05-07 20:49 | 28.30987 | -80.60570 | 35946 ft | 479 kts | 166° |
| 2026-05-07 20:49 | 28.27901 | -80.59317 | 35950 ft | 462 kts | 166° |
| 2026-05-07 20:49 | 28.24930 | -80.58115 | 35949 ft | 446 kts | 166° |
| 2026-05-07 20:50 | 28.22051 | -80.56950 | 35914 ft | 433 kts | 166° |
| 2026-05-07 20:50 | 28.19236 | -80.55814 | 35518 ft | 430 kts | 167° |
| 2026-05-07 20:50 | 28.16377 | -80.54672 | 34543 ft | 442 kts | 167° |
| 2026-05-07 20:50 | 28.13424 | -80.53497 | 33361 ft | 458 kts | 166° |
| 2026-05-07 20:51 | 28.10360 | -80.52274 | 32006 ft | 475 kts | 166° |
| 2026-05-07 20:51 | 28.07205 | -80.51008 | 30731 ft | 488 kts | 166° |
| 2026-05-07 20:51 | 28.03976 | -80.49706 | 29414 ft | 497 kts | 166° |
| 2026-05-07 20:51 | 28.00752 | -80.48404 | 28038 ft | 502 kts | 165° |
| 2026-05-07 20:52 | 27.97451 | -80.47070 | 26974 ft | 502 kts | 165° |
| 2026-05-07 20:52 | 27.94212 | -80.45763 | 26568 ft | 486 kts | 165° |
| 2026-05-07 20:52 | 27.91103 | -80.44510 | 26462 ft | 464 kts | 165° |
| 2026-05-07 20:52 | 27.88119 | -80.43308 | 26345 ft | 446 kts | 166° |
| 2026-05-07 20:53 | 27.85240 | -80.42152 | 26026 ft | 434 kts | 166° |
| 2026-05-07 20:53 | 27.82405 | -80.41019 | 25449 ft | 431 kts | 166° |
| 2026-05-07 20:53 | 27.79583 | -80.39894 | 24816 ft | 430 kts | 166° |
| 2026-05-07 20:53 | 27.76773 | -80.38772 | 24231 ft | 423 kts | 166° |
| 2026-05-07 20:54 | 27.74027 | -80.37672 | 23492 ft | 416 kts | 166° |
| 2026-05-07 20:54 | 27.71309 | -80.36586 | 22491 ft | 413 kts | 165° |
| 2026-05-07 20:54 | 27.68616 | -80.35510 | 21549 ft | 409 kts | 165° |
| 2026-05-07 20:54 | 27.65951 | -80.34421 | 20701 ft | 405 kts | 161° |
| 2026-05-07 20:55 | 27.63420 | -80.33154 | 19898 ft | 401 kts | 158° |
| 2026-05-07 20:55 | 27.60915 | -80.31811 | 19096 ft | 397 kts | 158° |
| 2026-05-07 20:55 | 27.58441 | -80.30469 | 18307 ft | 392 kts | 157° |
| 2026-05-07 20:55 | 27.55994 | -80.29151 | 17450 ft | 387 kts | 157° |
| 2026-05-07 20:56 | 27.53579 | -80.27865 | 16671 ft | 381 kts | 158° |
| 2026-05-07 20:56 | 27.51205 | -80.26611 | 15907 ft | 374 kts | 158° |
| 2026-05-07 20:56 | 27.48861 | -80.25376 | 15152 ft | 369 kts | 158° |
| 2026-05-07 20:56 | 27.46558 | -80.24165 | 14471 ft | 362 kts | 158° |
| 2026-05-07 20:57 | 27.44303 | -80.22978 | 13878 ft | 353 kts | 157° |
| 2026-05-07 20:57 | 27.42111 | -80.21823 | 13276 ft | 344 kts | 158° |
| 2026-05-07 20:57 | 27.39974 | -80.20698 | 12735 ft | 334 kts | 158° |
| 2026-05-07 20:57 | 27.37895 | -80.19604 | 12207 ft | 327 kts | 158° |
| 2026-05-07 20:58 | 27.35844 | -80.18526 | 11709 ft | 326 kts | 158° |
| 2026-05-07 20:58 | 27.33777 | -80.17441 | 11198 ft | 331 kts | 157° |
| 2026-05-07 20:58 | 27.31655 | -80.16328 | 10656 ft | 341 kts | 157° |
| 2026-05-07 20:58 | 27.29527 | -80.15209 | 10398 ft | 330 kts | 157° |
| 2026-05-07 20:59 | 27.27481 | -80.14133 | 10201 ft | 318 kts | 157° |
| 2026-05-07 20:59 | 27.25516 | -80.13102 | 10062 ft | 305 kts | 158° |
| 2026-05-07 20:59 | 27.23616 | -80.12159 | 9944 ft | 292 kts | 159° |
| 2026-05-07 20:59 | 27.21776 | -80.11274 | 9511 ft | 291 kts | 159° |
| 2026-05-07 21:00 | 27.19924 | -80.10388 | 9112 ft | 289 kts | 159° |
| 2026-05-07 21:00 | 27.18077 | -80.09498 | 8717 ft | 288 kts | 159° |
| 2026-05-07 21:00 | 27.16243 | -80.08612 | 8341 ft | 286 kts | 159° |
| 2026-05-07 21:00 | 27.14424 | -80.07732 | 7959 ft | 285 kts | 159° |
| 2026-05-07 21:01 | 27.12631 | -80.06858 | 7579 ft | 284 kts | 158° |
| 2026-05-07 21:01 | 27.10825 | -80.05965 | 7187 ft | 283 kts | 159° |
| 2026-05-07 21:01 | 27.09027 | -80.05072 | 6810 ft | 283 kts | 158° |
| 2026-05-07 21:01 | 27.07229 | -80.04180 | 6447 ft | 282 kts | 159° |
| 2026-05-07 21:02 | 27.05440 | -80.03294 | 6047 ft | 281 kts | 159° |
| 2026-05-07 21:02 | 27.03654 | -80.02410 | 5686 ft | 280 kts | 159° |
| 2026-05-07 21:02 | 27.01872 | -80.01528 | 5304 ft | 279 kts | 159° |
| 2026-05-07 21:02 | 27.00098 | -80.00651 | 4938 ft | 278 kts | 159° |
| 2026-05-07 21:03 | 26.98340 | -79.99783 | 4585 ft | 276 kts | 160° |
| 2026-05-07 21:03 | 26.96560 | -79.99010 | 4200 ft | 271 kts | 173° |
| 2026-05-07 21:03 | 26.94764 | -79.99091 | 4034 ft | 257 kts | 200° |
| 2026-05-07 21:03 | 26.93162 | -79.99976 | 4006 ft | 254 kts | 219° |
| 2026-05-07 21:04 | 26.91765 | -80.01172 | 3992 ft | 253 kts | 220° |
| 2026-05-07 21:04 | 26.90386 | -80.02378 | 3988 ft | 250 kts | 220° |
| 2026-05-07 21:04 | 26.89035 | -80.03556 | 3984 ft | 248 kts | 220° |
| 2026-05-07 21:04 | 26.87673 | -80.04735 | 4007 ft | 247 kts | 220° |
| 2026-05-07 21:05 | 26.86308 | -80.05912 | 4004 ft | 249 kts | 219° |
| 2026-05-07 21:05 | 26.84929 | -80.07100 | 3998 ft | 251 kts | 220° |
| 2026-05-07 21:05 | 26.83567 | -80.08278 | 3980 ft | 240 kts | 220° |
| 2026-05-07 21:05 | 26.82285 | -80.09392 | 3980 ft | 228 kts | 221° |
| 2026-05-07 21:06 | 26.81089 | -80.10494 | 3980 ft | 218 kts | 231° |
| 2026-05-07 21:06 | 26.80383 | -80.11946 | 3918 ft | 213 kts | 253° |
| 2026-05-07 21:06 | 26.80000 | -80.13555 | 3813 ft | 214 kts | 257° |
| 2026-05-07 21:06 | 26.79660 | -80.15172 | 3696 ft | 213 kts | 258° |
| 2026-05-07 21:07 | 26.79319 | -80.16775 | 3543 ft | 212 kts | 256° |
| 2026-05-07 21:07 | 26.78970 | -80.18384 | 3431 ft | 213 kts | 256° |
| 2026-05-07 21:07 | 26.78619 | -80.19980 | 3317 ft | 215 kts | 256° |
| 2026-05-07 21:07 | 26.78259 | -80.21615 | 3209 ft | 217 kts | 256° |
| 2026-05-07 21:08 | 26.77882 | -80.23248 | 3077 ft | 218 kts | 252° |
| 2026-05-07 21:08 | 26.77248 | -80.24774 | 2963 ft | 217 kts | 235° |
| 2026-05-07 21:08 | 26.76192 | -80.25966 | 2826 ft | 215 kts | 216° |
| 2026-05-07 21:08 | 26.74856 | -80.26670 | 2716 ft | 212 kts | 197° |
| 2026-05-07 21:09 | 26.73403 | -80.26862 | 2582 ft | 210 kts | 180° |
| 2026-05-07 21:09 | 26.71980 | -80.26650 | 2435 ft | 204 kts | 167° |
| 2026-05-07 21:09 | 26.70708 | -80.25945 | 2343 ft | 206 kts | 145° |
| 2026-05-07 21:09 | 26.69693 | -80.24800 | 2268 ft | 210 kts | 128° |
| 2026-05-07 21:10 | 26.69002 | -80.23350 | 2144 ft | 212 kts | 110° |
| 2026-05-07 21:10 | 26.68702 | -80.21735 | 1949 ft | 214 kts | 93° |
| 2026-05-07 21:10 | 26.68669 | -80.20066 | 1711 ft | 216 kts | 92° |
| 2026-05-07 21:10 | 26.68623 | -80.18429 | 1457 ft | 209 kts | 92° |
| 2026-05-07 21:11 | 26.68574 | -80.16881 | 1306 ft | 193 kts | 91° |
| 2026-05-07 21:11 | 26.68525 | -80.15389 | 946 ft | 188 kts | 96° |
| 2026-05-07 21:11 | 26.68406 | -80.12729 | 479 ft | 153 kts | 95° |
| 2026-05-07 21:12 | 26.68358 | -80.11607 | 269 ft | 137 kts | 95° |
| 2026-05-07 21:12 | 26.68313 | -80.10574 | 90 ft | 131 kts | 96° |
| 2026-05-07 21:12 | 26.68258 | -80.09601 | 21 ft | 114 kts | 91° |
| 2026-05-07 21:12 | 26.68230 | -80.08933 | 21 ft | 33 kts | 85° |
| 2026-05-07 21:13 | 26.68305 | -80.08845 | 21 ft | 14 kts | 6° |
| 2026-05-07 21:13 | 26.68347 | -80.08899 | 21 ft | 10 kts | 277° |
| 2026-05-07 21:13 | 26.68351 | -80.08995 | 22 ft | 16 kts | 272° |
| 2026-05-07 21:13 | 26.68355 | -80.09129 | 21 ft | 18 kts | 271° |
| 2026-05-07 21:14 | 26.68359 | -80.09265 | 21 ft | 17 kts | 274° |
| 2026-05-07 21:14 | 26.68407 | -80.09370 | 21 ft | 14 kts | 325° |
| 2026-05-07 21:14 | 26.68490 | -80.09350 | 22 ft | 13 kts | 46° |
| 2026-05-07 21:14 | 26.68540 | -80.09291 | 21 ft | 10 kts | 48° |
| 2026-05-07 21:15 | 26.68586 | -80.09242 | 21 ft | 9 kts | 21° |
| 2026-05-07 21:15 | 26.68631 | -80.09265 | 21 ft | 6 kts | 318° |
| 2026-05-07 21:15 | 26.68648 | -80.09282 | 21 ft | 0 kts | 318° |